sensor_id;sensor_type;location;lat;lon;timestamp;pressure;altitude;pressure_sealevel;temperature;humidity
51299;BME280;37382;45.192;9.790;2023-11-19T00:01:38;101882.00;;;6.33;100.00
51299;BME280;37382;45.192;9.790;2023-11-19T00:04:05;101888.97;;;6.35;100.00
51299;BME280;37382;45.192;9.790;2023-11-19T00:06:33;101881.44;;;6.49;100.00
51299;BME280;37382;45.192;9.790;2023-11-19T00:09:00;101878.84;;;6.67;100.00
51299;BME280;37382;45.192;9.790;2023-11-19T00:11:28;101884.53;;;6.64;100.00
51299;BME280;37382;45.192;9.790;2023-11-19T00:13:55;101879.25;;;6.91;100.00
51299;BME280;37382;45.192;9.790;2023-11-19T00:16:23;101866.53;;;7.02;100.00
51299;BME280;37382;45.192;9.790;2023-11-19T00:18:50;101859.44;;;6.91;100.00
51299;BME280;37382;45.192;9.790;2023-11-19T00:21:17;101864.03;;;6.81;100.00
51299;BME280;37382;45.192;9.790;2023-11-19T00:23:45;101869.19;;;6.54;100.00
51299;BME280;37382;45.192;9.790;2023-11-19T00:26:12;101867.72;;;6.80;100.00
51299;BME280;37382;45.192;9.790;2023-11-19T00:28:45;101865.00;;;6.99;100.00
51299;BME280;37382;45.192;9.790;2023-11-19T00:31:15;101863.28;;;6.98;100.00
51299;BME280;37382;45.192;9.790;2023-11-19T00:33:42;101861.56;;;6.97;100.00
51299;BME280;37382;45.192;9.790;2023-11-19T00:36:12;101867.09;;;7.05;100.00
51299;BME280;37382;45.192;9.790;2023-11-19T00:38:40;101867.13;;;6.95;100.00
51299;BME280;37382;45.192;9.790;2023-11-19T00:41:07;101863.91;;;6.72;100.00
51299;BME280;37382;45.192;9.790;2023-11-19T00:43:35;101856.53;;;6.55;100.00
51299;BME280;37382;45.192;9.790;2023-11-19T00:46:02;101858.50;;;6.72;100.00
51299;BME280;37382;45.192;9.790;2023-11-19T00:48:30;101855.34;;;6.87;100.00
51299;BME280;37382;45.192;9.790;2023-11-19T00:50:59;101854.56;;;7.04;100.00
51299;BME280;37382;45.192;9.790;2023-11-19T00:53:26;101849.34;;;6.93;100.00
51299;BME280;37382;45.192;9.790;2023-11-19T00:55:54;101847.19;;;6.97;100.00
51299;BME280;37382;45.192;9.790;2023-11-19T00:58:22;101840.78;;;6.98;100.00
51299;BME280;37382;45.192;9.790;2023-11-19T01:00:50;101853.72;;;7.04;100.00
51299;BME280;37382;45.192;9.790;2023-11-19T01:03:17;101847.47;;;6.93;100.00
51299;BME280;37382;45.192;9.790;2023-11-19T01:05:45;101850.44;;;7.00;100.00
51299;BME280;37382;45.192;9.790;2023-11-19T01:08:14;101856.59;;;7.02;100.00
51299;BME280;37382;45.192;9.790;2023-11-19T01:10:43;101852.72;;;7.05;100.00
51299;BME280;37382;45.192;9.790;2023-11-19T01:13:11;101852.19;;;6.91;100.00
51299;BME280;37382;45.192;9.790;2023-11-19T01:15:38;101849.84;;;6.49;100.00
51299;BME280;37382;45.192;9.790;2023-11-19T01:18:08;101846.84;;;6.52;100.00
51299;BME280;37382;45.192;9.790;2023-11-19T01:20:36;101849.84;;;6.49;100.00
51299;BME280;37382;45.192;9.790;2023-11-19T01:23:04;101842.91;;;6.94;100.00
51299;BME280;37382;45.192;9.790;2023-11-19T01:25:32;101834.41;;;6.89;100.00
51299;BME280;37382;45.192;9.790;2023-11-19T01:27:59;101833.25;;;6.91;100.00
51299;BME280;37382;45.192;9.790;2023-11-19T01:30:30;101827.78;;;6.54;100.00
51299;BME280;37382;45.192;9.790;2023-11-19T01:32:57;101834.75;;;6.27;100.00
51299;BME280;37382;45.192;9.790;2023-11-19T01:35:25;101843.38;;;5.92;100.00
51299;BME280;37382;45.192;9.790;2023-11-19T01:37:54;101841.94;;;5.78;100.00
51299;BME280;37382;45.192;9.790;2023-11-19T01:40:21;101847.06;;;5.91;100.00
51299;BME280;37382;45.192;9.790;2023-11-19T01:42:49;101839.44;;;6.05;100.00
51299;BME280;37382;45.192;9.790;2023-11-19T01:45:22;101831.34;;;6.25;100.00
51299;BME280;37382;45.192;9.790;2023-11-19T01:47:54;101831.63;;;6.41;100.00
51299;BME280;37382;45.192;9.790;2023-11-19T01:50:23;101823.22;;;6.35;100.00
51299;BME280;37382;45.192;9.790;2023-11-19T01:52:55;101816.56;;;6.39;100.00
51299;BME280;37382;45.192;9.790;2023-11-19T01:55:26;101821.97;;;6.49;100.00
51299;BME280;37382;45.192;9.790;2023-11-19T01:57:59;101816.25;;;6.42;100.00
51299;BME280;37382;45.192;9.790;2023-11-19T02:00:29;101811.16;;;6.29;100.00
51299;BME280;37382;45.192;9.790;2023-11-19T02:02:57;101807.72;;;5.88;100.00
51299;BME280;37382;45.192;9.790;2023-11-19T02:05:25;101793.94;;;5.91;100.00
51299;BME280;37382;45.192;9.790;2023-11-19T02:07:53;101801.06;;;6.02;100.00
51299;BME280;37382;45.192;9.790;2023-11-19T02:10:21;101810.94;;;5.62;100.00
51299;BME280;37382;45.192;9.790;2023-11-19T02:12:49;101793.34;;;5.78;100.00
51299;BME280;37382;45.192;9.790;2023-11-19T02:15:16;101801.97;;;5.62;100.00
51299;BME280;37382;45.192;9.790;2023-11-19T02:17:46;101794.84;;;5.41;100.00
51299;BME280;37382;45.192;9.790;2023-11-19T02:20:13;101789.19;;;5.54;100.00
51299;BME280;37382;45.192;9.790;2023-11-19T02:22:42;101777.00;;;5.69;100.00
51299;BME280;37382;45.192;9.790;2023-11-19T02:25:19;101774.03;;;5.82;100.00
51299;BME280;37382;45.192;9.790;2023-11-19T02:27:53;101761.22;;;5.75;100.00
51299;BME280;37382;45.192;9.790;2023-11-19T02:30:24;101748.56;;;5.95;100.00
51299;BME280;37382;45.192;9.790;2023-11-19T02:32:56;101757.53;;;5.66;100.00
51299;BME280;37382;45.192;9.790;2023-11-19T02:35:26;101753.38;;;5.52;100.00
51299;BME280;37382;45.192;9.790;2023-11-19T02:37:54;101754.16;;;5.23;100.00
51299;BME280;37382;45.192;9.790;2023-11-19T02:40:22;101757.97;;;5.11;100.00
51299;BME280;37382;45.192;9.790;2023-11-19T02:42:52;101760.53;;;5.12;100.00
51299;BME280;37382;45.192;9.790;2023-11-19T02:45:20;101751.31;;;4.84;100.00
51299;BME280;37382;45.192;9.790;2023-11-19T02:47:49;101745.94;;;4.84;100.00
51299;BME280;37382;45.192;9.790;2023-11-19T02:50:18;101750.34;;;5.26;100.00
51299;BME280;37382;45.192;9.790;2023-11-19T02:52:54;101743.44;;;5.43;100.00
51299;BME280;37382;45.192;9.790;2023-11-19T02:55:24;101747.88;;;5.03;100.00
51299;BME280;37382;45.192;9.790;2023-11-19T02:57:52;101754.16;;;5.13;100.00
51299;BME280;37382;45.192;9.790;2023-11-19T03:00:22;101741.75;;;5.61;100.00
51299;BME280;37382;45.192;9.790;2023-11-19T03:02:59;101750.00;;;4.99;100.00
51299;BME280;37382;45.192;9.790;2023-11-19T03:05:27;101743.09;;;5.16;100.00
51299;BME280;37382;45.192;9.790;2023-11-19T03:07:57;101748.69;;;5.34;100.00
51299;BME280;37382;45.192;9.790;2023-11-19T03:10:25;101755.00;;;5.14;100.00
51299;BME280;37382;45.192;9.790;2023-11-19T03:12:52;101750.84;;;5.00;100.00
51299;BME280;37382;45.192;9.790;2023-11-19T03:15:22;101742.47;;;5.03;100.00
51299;BME280;37382;45.192;9.790;2023-11-19T03:17:49;101735.63;;;4.89;100.00
51299;BME280;37382;45.192;9.790;2023-11-19T03:20:17;101735.88;;;4.86;100.00
51299;BME280;37382;45.192;9.790;2023-11-19T03:22:44;101742.91;;;4.68;100.00
51299;BME280;37382;45.192;9.790;2023-11-19T03:25:12;101740.22;;;4.68;100.00
51299;BME280;37382;45.192;9.790;2023-11-19T03:27:40;101743.09;;;4.55;100.00
51299;BME280;37382;45.192;9.790;2023-11-19T03:30:10;101749.13;;;4.68;100.00
51299;BME280;37382;45.192;9.790;2023-11-19T03:32:38;101735.50;;;5.01;100.00
51299;BME280;37382;45.192;9.790;2023-11-19T03:35:06;101739.66;;;4.74;100.00
51299;BME280;37382;45.192;9.790;2023-11-19T03:37:36;101734.28;;;4.74;100.00
51299;BME280;37382;45.192;9.790;2023-11-19T03:40:04;101741.81;;;4.80;100.00
51299;BME280;37382;45.192;9.790;2023-11-19T03:42:32;101743.78;;;4.78;100.00
51299;BME280;37382;45.192;9.790;2023-11-19T03:44:59;101741.75;;;4.70;100.00
51299;BME280;37382;45.192;9.790;2023-11-19T03:47:27;101755.19;;;4.60;100.00
51299;BME280;37382;45.192;9.790;2023-11-19T03:49:54;101746.13;;;4.61;100.00
51299;BME280;37382;45.192;9.790;2023-11-19T03:52:22;101749.03;;;4.79;100.00
51299;BME280;37382;45.192;9.790;2023-11-19T03:54:49;101749.28;;;4.67;100.00
51299;BME280;37382;45.192;9.790;2023-11-19T03:57:17;101745.72;;;4.66;100.00
51299;BME280;37382;45.192;9.790;2023-11-19T03:59:44;101740.50;;;4.74;100.00
51299;BME280;37382;45.192;9.790;2023-11-19T04:02:12;101734.03;;;4.87;100.00
51299;BME280;37382;45.192;9.790;2023-11-19T04:04:39;101734.50;;;4.92;100.00
51299;BME280;37382;45.192;9.790;2023-11-19T04:07:07;101736.09;;;5.04;100.00
51299;BME280;37382;45.192;9.790;2023-11-19T04:09:35;101725.25;;;5.35;100.00
51299;BME280;37382;45.192;9.790;2023-11-19T04:12:04;101724.69;;;5.51;100.00
51299;BME280;37382;45.192;9.790;2023-11-19T04:14:32;101722.16;;;5.59;100.00
51299;BME280;37382;45.192;9.790;2023-11-19T04:17:00;101732.50;;;5.44;100.00
51299;BME280;37382;45.192;9.790;2023-11-19T04:19:27;101719.41;;;5.40;100.00
51299;BME280;37382;45.192;9.790;2023-11-19T04:21:55;101723.56;;;5.44;100.00
51299;BME280;37382;45.192;9.790;2023-11-19T04:24:23;101724.72;;;5.61;100.00
51299;BME280;37382;45.192;9.790;2023-11-19T04:26:51;101715.31;;;5.45;100.00
51299;BME280;37382;45.192;9.790;2023-11-19T04:29:19;101723.00;;;5.50;100.00
51299;BME280;37382;45.192;9.790;2023-11-19T04:31:46;101703.69;;;5.55;100.00
51299;BME280;37382;45.192;9.790;2023-11-19T04:34:14;101714.16;;;5.48;100.00
51299;BME280;37382;45.192;9.790;2023-11-19T04:36:42;101712.25;;;5.19;100.00
51299;BME280;37382;45.192;9.790;2023-11-19T04:39:10;101715.06;;;4.98;100.00
51299;BME280;37382;45.192;9.790;2023-11-19T04:41:49;101701.31;;;5.01;100.00
51299;BME280;37382;45.192;9.790;2023-11-19T04:44:17;101707.47;;;4.82;100.00
51299;BME280;37382;45.192;9.790;2023-11-19T04:46:45;101707.63;;;4.80;100.00
51299;BME280;37382;45.192;9.790;2023-11-19T04:49:13;101697.75;;;5.01;100.00
51299;BME280;37382;45.192;9.790;2023-11-19T04:51:45;101700.22;;;5.13;100.00
51299;BME280;37382;45.192;9.790;2023-11-19T04:54:16;101682.72;;;5.08;100.00
51299;BME280;37382;45.192;9.790;2023-11-19T04:56:45;101683.16;;;5.13;100.00
51299;BME280;37382;45.192;9.790;2023-11-19T04:59:13;101680.06;;;5.27;100.00
51299;BME280;37382;45.192;9.790;2023-11-19T05:01:40;101666.44;;;5.39;100.00
51299;BME280;37382;45.192;9.790;2023-11-19T05:04:08;101671.28;;;5.45;100.00
51299;BME280;37382;45.192;9.790;2023-11-19T05:06:36;101691.31;;;5.52;100.00
51299;BME280;37382;45.192;9.790;2023-11-19T05:09:04;101683.91;;;5.54;100.00
51299;BME280;37382;45.192;9.790;2023-11-19T05:11:34;101687.75;;;5.32;100.00
51299;BME280;37382;45.192;9.790;2023-11-19T05:14:05;101694.81;;;5.23;100.00
51299;BME280;37382;45.192;9.790;2023-11-19T05:16:32;101682.34;;;5.32;100.00
51299;BME280;37382;45.192;9.790;2023-11-19T05:19:00;101677.50;;;5.35;100.00
51299;BME280;37382;45.192;9.790;2023-11-19T05:21:28;101689.44;;;5.23;100.00
51299;BME280;37382;45.192;9.790;2023-11-19T05:23:55;101681.78;;;5.28;100.00
51299;BME280;37382;45.192;9.790;2023-11-19T05:26:23;101678.06;;;5.29;100.00
51299;BME280;37382;45.192;9.790;2023-11-19T05:28:51;101678.81;;;5.41;100.00
51299;BME280;37382;45.192;9.790;2023-11-19T05:31:18;101671.69;;;5.40;100.00
51299;BME280;37382;45.192;9.790;2023-11-19T05:33:47;101666.03;;;5.53;100.00
51299;BME280;37382;45.192;9.790;2023-11-19T05:36:14;101659.22;;;5.49;100.00
51299;BME280;37382;45.192;9.790;2023-11-19T05:38:41;101658.50;;;5.57;100.00
51299;BME280;37382;45.192;9.790;2023-11-19T05:41:09;101660.44;;;5.25;100.00
51299;BME280;37382;45.192;9.790;2023-11-19T05:43:36;101661.19;;;5.37;100.00
51299;BME280;37382;45.192;9.790;2023-11-19T05:46:04;101654.66;;;5.40;100.00
51299;BME280;37382;45.192;9.790;2023-11-19T05:48:46;101658.75;;;5.14;100.00
51299;BME280;37382;45.192;9.790;2023-11-19T05:51:14;101654.75;;;4.99;100.00
51299;BME280;37382;45.192;9.790;2023-11-19T05:53:43;101660.81;;;4.91;100.00
51299;BME280;37382;45.192;9.790;2023-11-19T05:56:13;101663.44;;;4.62;100.00
51299;BME280;37382;45.192;9.790;2023-11-19T05:58:41;101652.63;;;4.52;100.00
51299;BME280;37382;45.192;9.790;2023-11-19T06:01:08;101646.22;;;4.53;100.00
51299;BME280;37382;45.192;9.790;2023-11-19T06:03:36;101638.09;;;4.84;100.00
51299;BME280;37382;45.192;9.790;2023-11-19T06:06:04;101646.56;;;4.60;100.00
51299;BME280;37382;45.192;9.790;2023-11-19T06:08:32;101646.72;;;4.78;100.00
51299;BME280;37382;45.192;9.790;2023-11-19T06:11:00;101648.97;;;4.63;100.00
51299;BME280;37382;45.192;9.790;2023-11-19T06:13:28;101655.78;;;4.67;100.00
51299;BME280;37382;45.192;9.790;2023-11-19T06:15:58;101656.66;;;4.68;100.00
51299;BME280;37382;45.192;9.790;2023-11-19T06:18:26;101649.63;;;4.86;100.00
51299;BME280;37382;45.192;9.790;2023-11-19T06:20:54;101645.38;;;4.93;100.00
51299;BME280;37382;45.192;9.790;2023-11-19T06:23:22;101650.53;;;4.66;100.00
51299;BME280;37382;45.192;9.790;2023-11-19T06:25:49;101645.41;;;4.62;100.00
51299;BME280;37382;45.192;9.790;2023-11-19T06:28:16;101646.22;;;4.53;100.00
51299;BME280;37382;45.192;9.790;2023-11-19T06:30:44;101656.44;;;4.50;100.00
51299;BME280;37382;45.192;9.790;2023-11-19T06:33:15;101642.06;;;4.39;100.00
51299;BME280;37382;45.192;9.790;2023-11-19T06:35:43;101633.78;;;4.52;100.00
51299;BME280;37382;45.192;9.790;2023-11-19T06:38:11;101648.28;;;4.40;100.00
51299;BME280;37382;45.192;9.790;2023-11-19T06:40:39;101643.50;;;4.43;100.00
51299;BME280;37382;45.192;9.790;2023-11-19T06:43:08;101648.03;;;4.43;100.00
51299;BME280;37382;45.192;9.790;2023-11-19T06:45:36;101649.69;;;4.75;100.00
51299;BME280;37382;45.192;9.790;2023-11-19T06:48:06;101642.63;;;4.74;100.00
51299;BME280;37382;45.192;9.790;2023-11-19T06:50:34;101644.09;;;4.97;100.00
51299;BME280;37382;45.192;9.790;2023-11-19T06:53:02;101639.44;;;4.99;100.00
51299;BME280;37382;45.192;9.790;2023-11-19T06:55:29;101643.59;;;4.73;100.00
51299;BME280;37382;45.192;9.790;2023-11-19T06:57:59;101655.75;;;4.57;100.00
51299;BME280;37382;45.192;9.790;2023-11-19T07:00:27;101651.06;;;4.59;100.00
51299;BME280;37382;45.192;9.790;2023-11-19T07:02:55;101657.97;;;4.42;100.00
51299;BME280;37382;45.192;9.790;2023-11-19T07:05:23;101664.59;;;4.69;100.00
51299;BME280;37382;45.192;9.790;2023-11-19T07:07:51;101674.22;;;4.62;100.00
51299;BME280;37382;45.192;9.790;2023-11-19T07:10:19;101678.75;;;4.61;100.00
51299;BME280;37382;45.192;9.790;2023-11-19T07:12:46;101671.88;;;4.88;100.00
51299;BME280;37382;45.192;9.790;2023-11-19T07:15:14;101671.78;;;4.99;100.00
51299;BME280;37382;45.192;9.790;2023-11-19T07:17:42;101671.06;;;4.97;100.00
51299;BME280;37382;45.192;9.790;2023-11-19T07:20:11;101677.19;;;4.99;100.00
51299;BME280;37382;45.192;9.790;2023-11-19T07:22:45;101671.13;;;5.37;100.00
51299;BME280;37382;45.192;9.790;2023-11-19T07:25:16;101664.00;;;5.16;100.00
51299;BME280;37382;45.192;9.790;2023-11-19T07:27:43;101670.69;;;5.22;100.00
51299;BME280;37382;45.192;9.790;2023-11-19T07:30:10;101665.84;;;5.25;100.00
51299;BME280;37382;45.192;9.790;2023-11-19T07:32:38;101665.03;;;5.34;100.00
51299;BME280;37382;45.192;9.790;2023-11-19T07:35:06;101662.19;;;5.46;100.00
51299;BME280;37382;45.192;9.790;2023-11-19T07:37:34;101672.81;;;5.57;100.00
51299;BME280;37382;45.192;9.790;2023-11-19T07:40:02;101658.75;;;5.63;100.00
51299;BME280;37382;45.192;9.790;2023-11-19T07:42:29;101673.00;;;5.65;100.00
51299;BME280;37382;45.192;9.790;2023-11-19T07:44:58;101668.56;;;5.84;100.00
51299;BME280;37382;45.192;9.790;2023-11-19T07:47:26;101677.78;;;5.81;100.00
51299;BME280;37382;45.192;9.790;2023-11-19T07:49:55;101677.25;;;5.78;100.00
51299;BME280;37382;45.192;9.790;2023-11-19T07:52:22;101661.59;;;5.91;100.00
51299;BME280;37382;45.192;9.790;2023-11-19T07:54:50;101664.16;;;6.12;100.00
51299;BME280;37382;45.192;9.790;2023-11-19T07:57:18;101668.41;;;6.15;100.00
51299;BME280;37382;45.192;9.790;2023-11-19T07:59:46;101669.22;;;6.25;100.00
51299;BME280;37382;45.192;9.790;2023-11-19T08:02:14;101667.66;;;6.32;100.00
51299;BME280;37382;45.192;9.790;2023-11-19T08:04:41;101677.44;;;6.33;100.00
51299;BME280;37382;45.192;9.790;2023-11-19T08:07:12;101669.63;;;6.40;100.00
51299;BME280;37382;45.192;9.790;2023-11-19T08:09:40;101670.75;;;6.47;100.00
51299;BME280;37382;45.192;9.790;2023-11-19T08:12:07;101665.44;;;6.55;100.00
51299;BME280;37382;45.192;9.790;2023-11-19T08:14:35;101675.06;;;6.68;100.00
51299;BME280;37382;45.192;9.790;2023-11-19T08:17:04;101667.19;;;6.74;100.00
51299;BME280;37382;45.192;9.790;2023-11-19T08:19:31;101658.28;;;6.92;100.00
51299;BME280;37382;45.192;9.790;2023-11-19T08:21:59;101654.34;;;7.04;100.00
51299;BME280;37382;45.192;9.790;2023-11-19T08:24:26;101661.72;;;7.12;100.00
51299;BME280;37382;45.192;9.790;2023-11-19T08:26:54;101658.56;;;7.35;100.00
51299;BME280;37382;45.192;9.790;2023-11-19T08:29:24;101666.81;;;7.15;100.00
51299;BME280;37382;45.192;9.790;2023-11-19T08:31:51;101656.66;;;7.45;100.00
51299;BME280;37382;45.192;9.790;2023-11-19T08:34:19;101657.78;;;7.60;100.00
51299;BME280;37382;45.192;9.790;2023-11-19T08:36:50;101661.91;;;7.46;100.00
51299;BME280;37382;45.192;9.790;2023-11-19T08:39:17;101679.53;;;7.51;100.00
51299;BME280;37382;45.192;9.790;2023-11-19T08:41:44;101673.72;;;7.63;100.00
51299;BME280;37382;45.192;9.790;2023-11-19T08:44:12;101689.81;;;7.83;100.00
51299;BME280;37382;45.192;9.790;2023-11-19T08:46:47;101677.56;;;7.97;100.00
51299;BME280;37382;45.192;9.790;2023-11-19T08:49:14;101675.78;;;8.06;100.00
51299;BME280;37382;45.192;9.790;2023-11-19T08:51:41;101689.53;;;8.12;100.00
51299;BME280;37382;45.192;9.790;2023-11-19T08:54:09;101679.44;;;8.23;100.00
51299;BME280;37382;45.192;9.790;2023-11-19T08:56:36;101681.19;;;8.32;100.00
51299;BME280;37382;45.192;9.790;2023-11-19T08:59:03;101680.06;;;8.43;100.00
51299;BME280;37382;45.192;9.790;2023-11-19T09:01:31;101694.13;;;8.38;100.00
51299;BME280;37382;45.192;9.790;2023-11-19T09:03:58;101691.94;;;8.68;100.00
51299;BME280;37382;45.192;9.790;2023-11-19T09:06:26;101689.34;;;8.93;100.00
51299;BME280;37382;45.192;9.790;2023-11-19T09:08:54;101684.09;;;8.91;100.00
51299;BME280;37382;45.192;9.790;2023-11-19T09:11:27;101682.22;;;9.00;100.00
51299;BME280;37382;45.192;9.790;2023-11-19T09:13:55;101691.78;;;9.12;100.00
51299;BME280;37382;45.192;9.790;2023-11-19T09:16:22;101695.34;;;9.13;100.00
51299;BME280;37382;45.192;9.790;2023-11-19T09:18:50;101690.09;;;9.19;100.00
51299;BME280;37382;45.192;9.790;2023-11-19T09:21:17;101693.53;;;9.30;100.00
51299;BME280;37382;45.192;9.790;2023-11-19T09:23:45;101699.84;;;9.47;100.00
51299;BME280;37382;45.192;9.790;2023-11-19T09:26:14;101708.53;;;9.50;100.00
51299;BME280;37382;45.192;9.790;2023-11-19T09:28:42;101697.34;;;9.86;100.00
51299;BME280;37382;45.192;9.790;2023-11-19T09:31:17;101691.22;;;10.09;100.00
51299;BME280;37382;45.192;9.790;2023-11-19T09:33:45;101679.50;;;10.08;100.00
51299;BME280;37382;45.192;9.790;2023-11-19T09:36:13;101683.03;;;10.25;100.00
51299;BME280;37382;45.192;9.790;2023-11-19T09:38:44;101687.44;;;10.43;100.00
51299;BME280;37382;45.192;9.790;2023-11-19T09:41:11;101683.53;;;10.29;100.00
51299;BME280;37382;45.192;9.790;2023-11-19T09:43:41;101686.69;;;10.74;100.00
51299;BME280;37382;45.192;9.790;2023-11-19T09:46:09;101677.56;;;10.50;100.00
51299;BME280;37382;45.192;9.790;2023-11-19T09:48:40;101672.75;;;10.68;100.00
51299;BME280;37382;45.192;9.790;2023-11-19T09:51:10;101671.88;;;10.76;100.00
51299;BME280;37382;45.192;9.790;2023-11-19T09:53:39;101655.47;;;10.93;100.00
51299;BME280;37382;45.192;9.790;2023-11-19T09:56:07;101655.69;;;10.83;100.00
51299;BME280;37382;45.192;9.790;2023-11-19T09:58:40;101659.94;;;11.17;100.00
51299;BME280;37382;45.192;9.790;2023-11-19T10:01:08;101669.31;;;11.14;100.00
51299;BME280;37382;45.192;9.790;2023-11-19T10:03:41;101657.19;;;10.94;100.00
51299;BME280;37382;45.192;9.790;2023-11-19T10:06:09;101658.06;;;10.86;100.00
51299;BME280;37382;45.192;9.790;2023-11-19T10:08:38;101650.53;;;10.96;100.00
51299;BME280;37382;45.192;9.790;2023-11-19T10:11:09;101642.97;;;11.38;100.00
51299;BME280;37382;45.192;9.790;2023-11-19T10:13:40;101633.88;;;11.46;100.00
51299;BME280;37382;45.192;9.790;2023-11-19T10:16:12;101630.94;;;11.93;100.00
51299;BME280;37382;45.192;9.790;2023-11-19T10:18:47;101615.56;;;11.78;100.00
51299;BME280;37382;45.192;9.790;2023-11-19T10:21:14;101611.72;;;12.40;100.00
51299;BME280;37382;45.192;9.790;2023-11-19T10:23:52;101627.75;;;11.67;100.00
51299;BME280;37382;45.192;9.790;2023-11-19T10:26:21;101624.75;;;11.77;100.00
51299;BME280;37382;45.192;9.790;2023-11-19T10:28:48;101618.75;;;12.04;100.00
51299;BME280;37382;45.192;9.790;2023-11-19T10:31:17;101608.50;;;11.68;100.00
51299;BME280;37382;45.192;9.790;2023-11-19T10:33:45;101621.56;;;11.96;100.00
51299;BME280;37382;45.192;9.790;2023-11-19T10:36:14;101608.28;;;11.93;100.00
51299;BME280;37382;45.192;9.790;2023-11-19T10:38:51;101600.91;;;11.79;100.00
51299;BME280;37382;45.192;9.790;2023-11-19T10:41:32;101584.34;;;12.03;100.00
51299;BME280;37382;45.192;9.790;2023-11-19T10:43:59;101589.06;;;11.86;100.00
51299;BME280;37382;45.192;9.790;2023-11-19T10:46:40;101586.72;;;11.83;100.00
51299;BME280;37382;45.192;9.790;2023-11-19T10:49:08;101588.75;;;12.04;100.00
51299;BME280;37382;45.192;9.790;2023-11-19T10:51:35;101589.84;;;11.95;100.00
51299;BME280;37382;45.192;9.790;2023-11-19T10:54:05;101592.88;;;12.30;100.00
51299;BME280;37382;45.192;9.790;2023-11-19T10:56:34;101600.13;;;12.38;100.00
51299;BME280;37382;45.192;9.790;2023-11-19T10:59:01;101594.03;;;12.06;100.00
51299;BME280;37382;45.192;9.790;2023-11-19T11:01:39;101595.44;;;12.46;100.00
51299;BME280;37382;45.192;9.790;2023-11-19T11:04:14;101589.50;;;12.43;100.00
51299;BME280;37382;45.192;9.790;2023-11-19T11:06:44;101574.56;;;13.12;100.00
51299;BME280;37382;45.192;9.790;2023-11-19T11:09:11;101585.72;;;12.59;100.00
51299;BME280;37382;45.192;9.790;2023-11-19T11:11:41;101564.59;;;12.82;100.00
51299;BME280;37382;45.192;9.790;2023-11-19T11:14:13;101573.00;;;12.66;100.00
51299;BME280;37382;45.192;9.790;2023-11-19T11:16:46;101566.97;;;12.71;100.00
51299;BME280;37382;45.192;9.790;2023-11-19T11:19:16;101571.81;;;12.90;100.00
51299;BME280;37382;45.192;9.790;2023-11-19T11:21:46;101555.72;;;13.17;100.00
51299;BME280;37382;45.192;9.790;2023-11-19T11:24:43;101542.03;;;13.88;100.00
51299;BME280;37382;45.192;9.790;2023-11-19T11:30:35;101540.69;;;13.28;100.00
51299;BME280;37382;45.192;9.790;2023-11-19T11:33:20;101543.28;;;13.58;100.00
51299;BME280;37382;45.192;9.790;2023-11-19T11:35:58;101535.97;;;13.65;100.00
51299;BME280;37382;45.192;9.790;2023-11-19T11:38:29;101541.31;;;14.08;100.00
51299;BME280;37382;45.192;9.790;2023-11-19T11:41:19;101543.63;;;13.26;100.00
51299;BME280;37382;45.192;9.790;2023-11-19T11:43:48;101536.59;;;13.17;100.00
51299;BME280;37382;45.192;9.790;2023-11-19T11:49:06;101528.25;;;13.47;100.00
51299;BME280;37382;45.192;9.790;2023-11-19T11:57:10;101523.28;;;13.85;100.00
51299;BME280;37382;45.192;9.790;2023-11-19T12:02:15;101518.56;;;13.73;100.00
51299;BME280;37382;45.192;9.790;2023-11-19T12:04:50;101509.72;;;13.42;100.00
51299;BME280;37382;45.192;9.790;2023-11-19T12:07:20;101505.69;;;13.16;100.00
51299;BME280;37382;45.192;9.790;2023-11-19T12:09:56;101512.50;;;13.77;100.00
51299;BME280;37382;45.192;9.790;2023-11-19T12:12:33;101508.88;;;14.05;100.00
51299;BME280;37382;45.192;9.790;2023-11-19T12:15:03;101499.63;;;13.99;100.00
51299;BME280;37382;45.192;9.790;2023-11-19T12:20:05;101500.66;;;13.70;100.00
51299;BME280;37382;45.192;9.790;2023-11-19T12:22:39;101480.06;;;14.09;100.00
51299;BME280;37382;45.192;9.790;2023-11-19T12:25:08;101485.81;;;14.21;100.00
51299;BME280;37382;45.192;9.790;2023-11-19T12:27:37;101491.84;;;14.10;100.00
51299;BME280;37382;45.192;9.790;2023-11-19T12:30:06;101486.53;;;13.95;100.00
51299;BME280;37382;45.192;9.790;2023-11-19T12:32:41;101484.66;;;14.50;100.00
51299;BME280;37382;45.192;9.790;2023-11-19T12:35:10;101470.88;;;14.79;100.00
51299;BME280;37382;45.192;9.790;2023-11-19T12:37:48;101466.69;;;14.96;100.00
51299;BME280;37382;45.192;9.790;2023-11-19T12:40:18;101461.41;;;15.28;100.00
51299;BME280;37382;45.192;9.790;2023-11-19T12:42:47;101458.44;;;15.50;100.00
51299;BME280;37382;45.192;9.790;2023-11-19T12:45:15;101450.00;;;15.38;100.00
51299;BME280;37382;45.192;9.790;2023-11-19T12:47:44;101443.03;;;15.55;100.00
51299;BME280;37382;45.192;9.790;2023-11-19T12:50:15;101445.38;;;15.45;100.00
51299;BME280;37382;45.192;9.790;2023-11-19T12:52:43;101433.13;;;15.41;100.00
51299;BME280;37382;45.192;9.790;2023-11-19T12:55:27;101432.72;;;15.37;100.00
51299;BME280;37382;45.192;9.790;2023-11-19T12:57:57;101436.75;;;15.15;100.00
51299;BME280;37382;45.192;9.790;2023-11-19T13:00:26;101436.94;;;15.40;100.00
51299;BME280;37382;45.192;9.790;2023-11-19T13:02:56;101428.31;;;15.29;100.00
51299;BME280;37382;45.192;9.790;2023-11-19T13:05:27;101422.41;;;15.33;100.00
51299;BME280;37382;45.192;9.790;2023-11-19T13:08:06;101430.41;;;15.34;100.00
51299;BME280;37382;45.192;9.790;2023-11-19T13:10:50;101421.78;;;15.30;100.00
51299;BME280;37382;45.192;9.790;2023-11-19T13:13:19;101418.81;;;15.25;100.00
51299;BME280;37382;45.192;9.790;2023-11-19T13:15:46;101411.84;;;15.43;100.00